Terminal Aerodrome Forecast
Issued by NWS Cleveland, OH

Home | Current Version | Previous Version | Graphics & Text | Print | Product List | Glossary On
Versions: 1 2 3 4 5 6 7 8 9 10 11 12 13 14 15 16 17 18 19 20 21 22 23 24
000
FTUS41 KCLE 272213 AAC
TAFCLE
TAF AMD
KCLE 272213Z 2722/2824 20012KT P6SM SCT020 OVC030
      TEMPO 2722/2724 BKN025
     FM280000 17012KT P6SM VCSH SCT008 OVC020
     FM280600 35005KT 5SM -SHRA BR OVC012
     FM281000 33012G20KT 2SM SHRA BR OVC008
     FM281200 33018G28KT 2SM SHRA BR OVC003=

USA.gov is the U.S. government's official web portal to all federal, state and local government web resources and services.